createdAt,value
2022-09-01T00:03:37.118Z,100677.44
2022-09-01T00:08:36.266Z,100677.41
2022-09-01T00:13:35.548Z,100680.44
2022-09-01T00:18:38.132Z,100679.34
2022-09-01T00:23:37.543Z,100680.56
2022-09-01T00:28:37.951Z,100673.97
2022-09-01T00:33:39.137Z,100678.25
2022-09-01T00:38:38.262Z,100663.47
2022-09-01T00:43:42.597Z,100654.50
2022-09-01T00:48:44.517Z,100659.47
2022-09-01T00:53:52.441Z,100663.66
2022-09-01T00:58:52.765Z,100659.78
2022-09-01T01:03:53.563Z,100668.69
2022-09-01T01:09:05.719Z,100671.69
2022-09-01T01:14:12.490Z,100667.88
2022-09-01T01:19:38.849Z,100670.88
2022-09-01T01:24:39.587Z,100677.06
2022-09-01T01:29:44.467Z,100675.75
2022-09-01T01:34:47.530Z,100678.50
2022-09-01T01:39:49.273Z,100681.50
2022-09-01T01:44:50.033Z,100684.16
2022-09-01T01:49:49.335Z,100682.16
2022-09-01T01:54:49.761Z,100688.56
2022-09-01T01:59:48.943Z,100695.09
2022-09-01T02:04:48.086Z,100694.47
2022-09-01T02:09:49.588Z,100690.84
2022-09-01T02:14:51.168Z,100694.66
2022-09-01T02:19:49.941Z,100693.06
2022-09-01T02:24:52.710Z,100703.47
2022-09-01T02:29:55.640Z,100696.41
2022-09-01T02:35:01.472Z,100708.19
2022-09-01T02:40:02.364Z,100702.41
2022-09-01T02:50:46.026Z,100701.78
2022-09-01T02:55:47.218Z,100705.19
2022-09-01T03:00:46.947Z,100704.03
2022-09-01T03:05:46.054Z,100706.41
2022-09-01T03:10:47.587Z,100700.00
2022-09-01T03:15:46.700Z,100706.91
2022-09-01T03:20:53.212Z,100707.06
2022-09-01T03:25:53.732Z,100712.94
2022-09-01T03:30:55.364Z,100720.34
2022-09-01T03:35:56.285Z,100727.25
2022-09-01T03:41:02.373Z,100722.69
2022-09-01T03:46:05.685Z,100728.41
2022-09-01T03:51:06.430Z,100713.47
2022-09-01T03:56:09.137Z,100718.31
2022-09-01T04:01:16.771Z,100715.97
2022-09-01T04:06:24.603Z,100714.97
2022-09-01T04:11:28.785Z,100715.31
2022-09-01T04:16:56.884Z,100713.63
2022-09-01T04:22:16.755Z,100718.66
2022-09-01T04:27:27.337Z,100721.34
2022-09-01T04:32:28.240Z,100722.53
2022-09-01T04:37:30.379Z,100725.84
2022-09-01T04:42:37.472Z,100726.13
2022-09-01T04:47:37.812Z,100731.84
2022-09-01T04:52:40.314Z,100728.66
2022-09-01T04:57:49.972Z,100719.22
2022-09-01T05:02:57.844Z,100719.06
2022-09-01T05:08:23.398Z,100723.59
2022-09-01T05:13:49.425Z,100725.13
2022-09-01T05:18:58.123Z,100724.13
2022-09-01T05:24:05.143Z,100720.59
2022-09-01T05:29:10.876Z,100724.84
2022-09-01T05:34:20.444Z,100721.53
2022-09-01T05:39:19.467Z,100725.22
2022-09-01T05:44:22.776Z,100717.00
2022-09-01T05:49:24.787Z,100707.75
2022-09-01T05:54:25.794Z,100717.16
2022-09-01T05:59:31.584Z,100718.66
2022-09-01T06:04:35.705Z,100719.34
2022-09-01T06:09:48.613Z,100719.66
2022-09-01T06:14:54.549Z,100727.41
2022-09-01T06:19:56.541Z,100724.22
2022-09-01T06:25:02.188Z,100730.25
2022-09-01T06:30:15.443Z,100730.91
2022-09-01T06:35:32.589Z,100733.06
2022-09-01T06:40:39.785Z,100744.91
2022-09-01T06:45:44.517Z,100745.97
2022-09-01T06:56:05.723Z,100751.88
2022-09-01T07:01:12.102Z,100759.47
2022-09-01T07:06:59.018Z,100750.63
2022-09-01T07:17:23.667Z,100746.84
2022-09-01T07:22:36.954Z,100744.91
2022-09-01T07:27:41.509Z,100739.09
2022-09-01T07:44:05.492Z,100746.50
2022-09-01T07:54:29.310Z,100713.19
2022-09-01T07:59:30.203Z,100716.69
2022-09-01T08:04:43.283Z,100717.09
2022-09-01T08:09:45.262Z,100714.63
2022-09-01T08:20:20.705Z,100712.94
2022-09-01T08:25:59.503Z,100710.03
2022-09-01T08:31:00.285Z,100698.00
2022-09-01T08:36:11.703Z,100693.72
2022-09-01T08:41:28.569Z,100678.75
2022-09-01T08:46:36.400Z,100689.13
2022-09-01T08:51:41.405Z,100682.28
2022-09-01T08:56:49.801Z,100677.25
2022-09-01T09:01:58.727Z,100663.75
2022-09-01T09:07:07.365Z,100660.75
2022-09-01T09:12:23.184Z,100658.88
2022-09-01T09:17:27.154Z,100655.25
2022-09-01T09:22:29.789Z,100639.59
2022-09-01T09:27:31.653Z,100638.56
2022-09-01T09:33:15.320Z,100628.06
2022-09-01T09:38:37.613Z,100626.34
2022-09-01T09:43:42.218Z,100618.59
2022-09-01T09:48:43.437Z,100611.72
2022-09-01T09:53:44.941Z,100610.06
2022-09-01T09:58:46.722Z,100608.03
2022-09-01T10:03:49.381Z,100597.88
2022-09-01T10:08:52.562Z,100591.25
2022-09-01T10:13:53.275Z,100586.16
2022-09-01T10:18:53.108Z,100582.16
2022-09-01T10:24:17.138Z,100575.13
2022-09-01T10:29:17.778Z,100577.78
2022-09-01T10:34:19.884Z,100568.53
2022-09-01T10:39:28.491Z,100559.94
2022-09-01T10:44:35.668Z,100559.22
2022-09-01T10:50:01.706Z,100560.69
2022-09-01T10:55:15.005Z,100550.56
2022-09-01T11:00:37.692Z,100538.63
2022-09-01T11:06:13.640Z,100549.97
2022-09-01T11:11:25.802Z,100541.22
2022-09-01T11:16:50.523Z,100529.28
2022-09-01T11:22:04.245Z,100518.22
2022-09-01T11:34:00.044Z,100506.97
2022-09-01T11:39:09.034Z,100500.31
2022-09-01T11:44:15.613Z,100489.84
2022-09-01T11:49:29.859Z,100492.75
2022-09-01T11:54:29.807Z,100488.63
2022-09-01T11:59:34.134Z,100485.00
2022-09-01T12:04:38.133Z,100472.78
2022-09-01T12:09:46.409Z,100464.56
2022-09-01T12:15:28.544Z,100475.59
2022-09-01T12:20:34.690Z,100469.34
2022-09-01T12:25:45.446Z,100464.81
2022-09-01T12:30:47.263Z,100457.47
2022-09-01T12:36:06.760Z,100461.38
2022-09-01T12:41:25.174Z,100453.41
2022-09-01T12:46:44.064Z,100450.31
2022-09-01T12:51:45.426Z,100448.88
2022-09-01T12:56:52.047Z,100441.06
2022-09-01T13:01:51.941Z,100439.16
2022-09-01T13:06:53.658Z,100430.16
2022-09-01T13:12:09.677Z,100431.13
2022-09-01T13:17:32.156Z,100417.63
2022-09-01T13:22:54.760Z,100417.13
2022-09-01T13:28:15.651Z,100418.34
2022-09-01T13:33:19.627Z,100415.16
2022-09-01T13:38:21.834Z,100420.22
2022-09-01T13:43:22.899Z,100417.88
2022-09-01T13:48:22.913Z,100417.97
2022-09-01T13:53:36.009Z,100420.19
2022-09-01T13:58:38.381Z,100411.69
2022-09-01T14:03:37.828Z,100415.47
2022-09-01T14:08:38.634Z,100429.06
2022-09-01T14:13:42.848Z,100420.69
2022-09-01T14:18:42.673Z,100423.25
2022-09-01T14:29:02.787Z,100410.44
2022-09-01T14:34:01.722Z,100414.31
2022-09-01T14:39:02.298Z,100410.47
2022-09-01T14:44:15.694Z,100409.84
2022-09-01T14:49:22.209Z,100407.53
2022-09-01T14:54:26.245Z,100402.63
2022-09-01T14:59:25.688Z,100401.69
2022-09-01T15:04:24.945Z,100409.75
2022-09-01T15:09:34.249Z,100409.63
2022-09-01T15:14:43.115Z,100401.69
2022-09-01T15:19:42.317Z,100395.50
2022-09-01T15:24:56.277Z,100395.53
2022-09-01T15:29:59.745Z,100410.81
2022-09-01T15:34:59.443Z,100403.16
2022-09-01T15:39:59.844Z,100402.31
2022-09-01T15:44:59.074Z,100412.03
2022-09-01T15:49:57.735Z,100414.66
2022-09-01T15:54:59.556Z,100424.03
2022-09-01T15:59:58.623Z,100414.81
2022-09-01T16:04:57.969Z,100408.44
2022-09-01T16:09:59.383Z,100409.59
2022-09-01T16:15:09.433Z,100421.97
2022-09-01T16:20:15.164Z,100429.25
2022-09-01T16:25:16.797Z,100435.16
2022-09-01T16:30:30.391Z,100429.66
2022-09-01T16:35:58.923Z,100438.81
2022-09-01T16:41:12.024Z,100443.66
2022-09-01T16:46:25.355Z,100452.72
2022-09-01T16:51:34.960Z,100460.50
2022-09-01T16:56:55.402Z,100484.25
2022-09-01T17:02:06.244Z,100546.66
2022-09-01T17:07:13.335Z,100579.81
2022-09-01T17:12:28.006Z,100593.28
2022-09-01T17:25:19.387Z,100634.88
2022-09-01T17:32:04.300Z,100649.84
2022-09-01T18:46:24.158Z,100658.91
2022-09-01T18:51:32.657Z,100640.38
2022-09-01T18:56:42.595Z,100638.13
2022-09-01T19:01:51.482Z,100624.22
2022-09-01T19:07:01.657Z,100612.03
2022-09-01T19:12:14.155Z,100621.31
2022-09-01T19:17:31.129Z,100630.63
2022-09-01T19:22:40.219Z,100641.88
2022-09-01T19:27:39.547Z,100658.56
2022-09-01T19:32:40.875Z,100663.16
2022-09-01T19:37:40.366Z,100668.78
2022-09-01T19:42:44.550Z,100678.75
2022-09-01T19:48:10.011Z,100674.66
2022-09-01T19:53:38.152Z,100681.66
2022-09-01T19:58:47.046Z,100681.00
2022-09-01T20:04:12.775Z,100685.69
2022-09-01T20:09:18.140Z,100692.69
2022-09-01T20:14:34.965Z,100684.31
2022-09-01T20:19:42.521Z,100686.03
2022-09-01T20:24:41.636Z,100690.09
2022-09-01T20:29:48.388Z,100686.88
2022-09-01T20:34:54.525Z,100680.00
2022-09-01T20:40:01.708Z,100678.00
2022-09-01T20:45:06.766Z,100675.97
2022-09-01T20:50:12.752Z,100683.38
2022-09-01T20:55:16.275Z,100696.16
2022-09-01T21:00:23.099Z,100704.56
2022-09-01T21:05:34.084Z,100692.78
2022-09-01T21:10:47.937Z,100695.78
2022-09-01T21:15:52.940Z,100690.09
2022-09-01T21:21:05.427Z,100685.38
2022-09-01T21:26:04.617Z,100691.56
2022-09-01T21:31:41.436Z,100697.44
2022-09-01T21:36:49.706Z,100702.84
2022-09-01T21:41:52.569Z,100704.72
2022-09-01T21:46:51.622Z,100702.03
2022-09-01T21:51:52.173Z,100700.19
2022-09-01T21:56:53.485Z,100697.13
2022-09-01T22:01:52.639Z,100694.28
2022-09-01T22:06:53.416Z,100696.50
2022-09-01T22:11:52.910Z,100706.53
2022-09-01T22:16:52.130Z,100699.00
2022-09-01T22:21:53.108Z,100697.13
2022-09-01T22:26:52.150Z,100698.91
2022-09-01T22:31:51.029Z,100692.56
2022-09-01T22:36:52.234Z,100696.28
2022-09-01T22:41:51.162Z,100701.47
2022-09-01T22:46:50.495Z,100698.75
2022-09-01T22:51:49.462Z,100695.94
2022-09-01T22:56:50.316Z,100701.84
2022-09-01T23:01:51.599Z,100686.88
2022-09-01T23:06:52.874Z,100688.75
2022-09-01T23:11:53.501Z,100681.81
2022-09-01T23:16:52.997Z,100687.34
2022-09-01T23:21:52.564Z,100685.72
2022-09-01T23:26:52.765Z,100676.84
2022-09-01T23:31:51.804Z,100684.19
2022-09-01T23:36:50.912Z,100677.16
2022-09-01T23:41:49.873Z,100691.44
2022-09-01T23:46:50.428Z,100688.06
2022-09-01T23:51:49.581Z,100696.97
2022-09-01T23:56:48.719Z,100700.16
